sensor_id;sensor_type;location;lat;lon;timestamp;temperature;humidity
20384;DHT22;46458;50.966;7.002;2023-05-18T00:00:20;10.00;99.90
20384;DHT22;46458;50.966;7.002;2023-05-18T00:02:51;10.00;99.90
20384;DHT22;46458;50.966;7.002;2023-05-18T00:05:23;10.00;99.90
20384;DHT22;46458;50.966;7.002;2023-05-18T00:07:55;9.90;99.90
20384;DHT22;46458;50.966;7.002;2023-05-18T00:10:28;10.00;99.90
20384;DHT22;46458;50.966;7.002;2023-05-18T00:12:57;9.90;99.90
20384;DHT22;46458;50.966;7.002;2023-05-18T00:15:26;10.00;99.90
20384;DHT22;46458;50.966;7.002;2023-05-18T00:17:56;10.00;99.90
20384;DHT22;46458;50.966;7.002;2023-05-18T00:20:25;9.90;99.90
20384;DHT22;46458;50.966;7.002;2023-05-18T00:22:54;10.00;99.90
20384;DHT22;46458;50.966;7.002;2023-05-18T00:25:27;10.00;99.90
20384;DHT22;46458;50.966;7.002;2023-05-18T00:27:59;9.90;99.90
20384;DHT22;46458;50.966;7.002;2023-05-18T00:30:28;9.80;99.90
20384;DHT22;46458;50.966;7.002;2023-05-18T00:32:57;10.10;99.90
20384;DHT22;46458;50.966;7.002;2023-05-18T00:35:26;9.70;99.90
20384;DHT22;46458;50.966;7.002;2023-05-18T00:37:55;9.70;99.90
20384;DHT22;46458;50.966;7.002;2023-05-18T00:40:27;9.70;99.90
20384;DHT22;46458;50.966;7.002;2023-05-18T00:42:56;9.70;99.90
20384;DHT22;46458;50.966;7.002;2023-05-18T00:45:26;9.70;99.90
20384;DHT22;46458;50.966;7.002;2023-05-18T00:47:57;9.70;99.90
20384;DHT22;46458;50.966;7.002;2023-05-18T00:50:26;9.80;99.90
20384;DHT22;46458;50.966;7.002;2023-05-18T00:52:59;9.80;99.90
20384;DHT22;46458;50.966;7.002;2023-05-18T00:55:30;9.70;99.90
20384;DHT22;46458;50.966;7.002;2023-05-18T00:58:00;9.60;99.90
20384;DHT22;46458;50.966;7.002;2023-05-18T01:00:30;9.70;99.90
20384;DHT22;46458;50.966;7.002;2023-05-18T01:03:05;9.60;99.90
20384;DHT22;46458;50.966;7.002;2023-05-18T01:05:35;9.50;99.90
20384;DHT22;46458;50.966;7.002;2023-05-18T01:08:05;9.50;99.90
20384;DHT22;46458;50.966;7.002;2023-05-18T01:10:41;9.50;99.90
20384;DHT22;46458;50.966;7.002;2023-05-18T01:13:17;9.40;99.90
20384;DHT22;46458;50.966;7.002;2023-05-18T01:15:53;9.50;99.90
20384;DHT22;46458;50.966;7.002;2023-05-18T01:18:31;9.40;99.90
20384;DHT22;46458;50.966;7.002;2023-05-18T01:21:10;9.40;99.90
20384;DHT22;46458;50.966;7.002;2023-05-18T01:24:12;9.30;99.90
20384;DHT22;46458;50.966;7.002;2023-05-18T01:26:53;9.30;99.90
20384;DHT22;46458;50.966;7.002;2023-05-18T01:29:25;9.30;99.90
20384;DHT22;46458;50.966;7.002;2023-05-18T01:31:58;9.20;99.90
20384;DHT22;46458;50.966;7.002;2023-05-18T01:34:30;9.20;99.90
20384;DHT22;46458;50.966;7.002;2023-05-18T01:36:59;9.10;99.90
20384;DHT22;46458;50.966;7.002;2023-05-18T01:39:28;9.20;99.90
20384;DHT22;46458;50.966;7.002;2023-05-18T01:42:07;9.10;99.90
20384;DHT22;46458;50.966;7.002;2023-05-18T01:44:42;9.00;99.90
20384;DHT22;46458;50.966;7.002;2023-05-18T01:47:13;9.10;99.90
20384;DHT22;46458;50.966;7.002;2023-05-18T01:49:47;9.00;99.90
20384;DHT22;46458;50.966;7.002;2023-05-18T01:52:22;9.00;99.90
20384;DHT22;46458;50.966;7.002;2023-05-18T01:54:55;9.00;99.90
20384;DHT22;46458;50.966;7.002;2023-05-18T01:57:30;9.00;99.90
20384;DHT22;46458;50.966;7.002;2023-05-18T01:59:59;9.00;99.90
20384;DHT22;46458;50.966;7.002;2023-05-18T02:02:42;9.00;99.90
20384;DHT22;46458;50.966;7.002;2023-05-18T02:05:16;9.00;99.90
20384;DHT22;46458;50.966;7.002;2023-05-18T02:07:46;9.00;99.90
20384;DHT22;46458;50.966;7.002;2023-05-18T02:10:15;8.90;99.90
20384;DHT22;46458;50.966;7.002;2023-05-18T02:12:50;8.90;99.90
20384;DHT22;46458;50.966;7.002;2023-05-18T02:15:19;9.00;99.90
20384;DHT22;46458;50.966;7.002;2023-05-18T02:17:48;9.00;99.90
20384;DHT22;46458;50.966;7.002;2023-05-18T02:20:22;9.00;99.90
20384;DHT22;46458;50.966;7.002;2023-05-18T02:22:51;9.00;99.90
20384;DHT22;46458;50.966;7.002;2023-05-18T02:25:20;8.90;99.90
20384;DHT22;46458;50.966;7.002;2023-05-18T02:27:52;8.80;99.90
20384;DHT22;46458;50.966;7.002;2023-05-18T02:30:21;8.90;99.90
20384;DHT22;46458;50.966;7.002;2023-05-18T02:32:50;8.80;99.90
20384;DHT22;46458;50.966;7.002;2023-05-18T02:35:22;8.90;99.90
20384;DHT22;46458;50.966;7.002;2023-05-18T02:37:50;8.90;99.90
20384;DHT22;46458;50.966;7.002;2023-05-18T02:40:20;8.90;99.90
20384;DHT22;46458;50.966;7.002;2023-05-18T02:42:54;8.90;99.90
20384;DHT22;46458;50.966;7.002;2023-05-18T02:45:24;8.70;99.90
20384;DHT22;46458;50.966;7.002;2023-05-18T02:47:53;8.70;99.90
20384;DHT22;46458;50.966;7.002;2023-05-18T02:50:22;8.60;99.90
20384;DHT22;46458;50.966;7.002;2023-05-18T02:52:51;8.50;99.90
20384;DHT22;46458;50.966;7.002;2023-05-18T02:55:20;8.60;99.90
20384;DHT22;46458;50.966;7.002;2023-05-18T02:58:09;8.60;99.90
20384;DHT22;46458;50.966;7.002;2023-05-18T03:01:07;8.50;99.90
20384;DHT22;46458;50.966;7.002;2023-05-18T03:03:42;8.50;99.90
20384;DHT22;46458;50.966;7.002;2023-05-18T03:06:12;8.30;99.90
20384;DHT22;46458;50.966;7.002;2023-05-18T03:08:42;8.30;99.90
20384;DHT22;46458;50.966;7.002;2023-05-18T03:11:15;8.30;99.90
20384;DHT22;46458;50.966;7.002;2023-05-18T03:13:47;8.40;99.90
20384;DHT22;46458;50.966;7.002;2023-05-18T03:16:16;8.40;99.90
20384;DHT22;46458;50.966;7.002;2023-05-18T03:18:46;8.50;99.90
20384;DHT22;46458;50.966;7.002;2023-05-18T03:21:15;8.40;99.90
20384;DHT22;46458;50.966;7.002;2023-05-18T03:23:44;8.20;99.90
20384;DHT22;46458;50.966;7.002;2023-05-18T03:26:19;8.20;99.90
20384;DHT22;46458;50.966;7.002;2023-05-18T03:28:54;8.00;99.90
20384;DHT22;46458;50.966;7.002;2023-05-18T03:31:24;8.10;99.90
20384;DHT22;46458;50.966;7.002;2023-05-18T03:33:56;8.20;99.90
20384;DHT22;46458;50.966;7.002;2023-05-18T03:36:27;8.10;99.90
20384;DHT22;46458;50.966;7.002;2023-05-18T03:38:57;8.20;99.90
20384;DHT22;46458;50.966;7.002;2023-05-18T03:41:35;8.10;99.90
20384;DHT22;46458;50.966;7.002;2023-05-18T03:44:06;8.10;99.90
20384;DHT22;46458;50.966;7.002;2023-05-18T03:46:35;8.10;99.90
20384;DHT22;46458;50.966;7.002;2023-05-18T03:49:04;8.20;99.90
20384;DHT22;46458;50.966;7.002;2023-05-18T03:51:38;8.30;99.90
20384;DHT22;46458;50.966;7.002;2023-05-18T03:54:06;8.30;99.90
20384;DHT22;46458;50.966;7.002;2023-05-18T03:56:35;8.30;99.90
20384;DHT22;46458;50.966;7.002;2023-05-18T03:59:07;8.20;99.90
20384;DHT22;46458;50.966;7.002;2023-05-18T04:01:40;8.10;99.90
20384;DHT22;46458;50.966;7.002;2023-05-18T04:04:10;8.10;99.90
20384;DHT22;46458;50.966;7.002;2023-05-18T04:06:42;8.20;99.90
20384;DHT22;46458;50.966;7.002;2023-05-18T04:09:11;8.10;99.90
20384;DHT22;46458;50.966;7.002;2023-05-18T04:11:42;8.20;99.90
20384;DHT22;46458;50.966;7.002;2023-05-18T04:14:16;8.20;99.90
20384;DHT22;46458;50.966;7.002;2023-05-18T04:16:47;7.70;99.90
20384;DHT22;46458;50.966;7.002;2023-05-18T04:19:19;8.30;99.90
20384;DHT22;46458;50.966;7.002;2023-05-18T04:21:51;8.40;99.90
20384;DHT22;46458;50.966;7.002;2023-05-18T04:24:23;8.40;99.90
20384;DHT22;46458;50.966;7.002;2023-05-18T04:26:52;8.40;99.90
20384;DHT22;46458;50.966;7.002;2023-05-18T04:29:29;8.40;99.90
20384;DHT22;46458;50.966;7.002;2023-05-18T04:31:58;8.30;99.90
20384;DHT22;46458;50.966;7.002;2023-05-18T04:34:38;8.40;99.90
20384;DHT22;46458;50.966;7.002;2023-05-18T04:37:07;8.40;99.90
20384;DHT22;46458;50.966;7.002;2023-05-18T04:39:37;8.50;99.90
20384;DHT22;46458;50.966;7.002;2023-05-18T04:42:09;8.30;99.90
20384;DHT22;46458;50.966;7.002;2023-05-18T04:44:46;8.30;99.90
20384;DHT22;46458;50.966;7.002;2023-05-18T04:47:17;8.40;99.90
20384;DHT22;46458;50.966;7.002;2023-05-18T04:49:48;8.40;99.90
20384;DHT22;46458;50.966;7.002;2023-05-18T04:52:18;8.30;99.90
20384;DHT22;46458;50.966;7.002;2023-05-18T04:54:47;8.40;99.90
20384;DHT22;46458;50.966;7.002;2023-05-18T04:57:16;8.40;99.90
20384;DHT22;46458;50.966;7.002;2023-05-18T04:59:47;8.50;99.90
20384;DHT22;46458;50.966;7.002;2023-05-18T05:02:20;8.50;99.90
20384;DHT22;46458;50.966;7.002;2023-05-18T05:04:49;8.70;99.90
20384;DHT22;46458;50.966;7.002;2023-05-18T05:07:18;8.70;99.90
20384;DHT22;46458;50.966;7.002;2023-05-18T05:09:47;8.70;99.90
20384;DHT22;46458;50.966;7.002;2023-05-18T05:12:15;8.70;99.90
20384;DHT22;46458;50.966;7.002;2023-05-18T05:14:47;8.70;99.90
20384;DHT22;46458;50.966;7.002;2023-05-18T05:17:19;8.80;99.90
20384;DHT22;46458;50.966;7.002;2023-05-18T05:19:48;8.70;99.90
20384;DHT22;46458;50.966;7.002;2023-05-18T05:22:17;8.70;99.90
20384;DHT22;46458;50.966;7.002;2023-05-18T05:24:46;8.70;99.90
20384;DHT22;46458;50.966;7.002;2023-05-18T05:27:15;8.80;99.90
20384;DHT22;46458;50.966;7.002;2023-05-18T05:29:48;8.80;99.90
20384;DHT22;46458;50.966;7.002;2023-05-18T05:32:17;8.80;99.90
20384;DHT22;46458;50.966;7.002;2023-05-18T05:34:46;8.90;99.90
20384;DHT22;46458;50.966;7.002;2023-05-18T05:37:17;8.90;99.90
20384;DHT22;46458;50.966;7.002;2023-05-18T05:39:47;9.00;99.90
20384;DHT22;46458;50.966;7.002;2023-05-18T05:42:17;9.00;99.90
20384;DHT22;46458;50.966;7.002;2023-05-18T05:44:49;9.10;99.90
20384;DHT22;46458;50.966;7.002;2023-05-18T05:47:19;9.10;99.90
20384;DHT22;46458;50.966;7.002;2023-05-18T05:49:51;9.10;99.90
20384;DHT22;46458;50.966;7.002;2023-05-18T05:52:20;9.10;99.90
20384;DHT22;46458;50.966;7.002;2023-05-18T05:54:50;9.20;99.90
20384;DHT22;46458;50.966;7.002;2023-05-18T05:57:19;9.20;99.90
20384;DHT22;46458;50.966;7.002;2023-05-18T05:59:51;9.30;99.90
20384;DHT22;46458;50.966;7.002;2023-05-18T06:02:20;9.30;99.90
20384;DHT22;46458;50.966;7.002;2023-05-18T06:04:51;9.40;99.90
20384;DHT22;46458;50.966;7.002;2023-05-18T06:07:20;9.50;99.90
20384;DHT22;46458;50.966;7.002;2023-05-18T06:09:49;9.60;99.90
20384;DHT22;46458;50.966;7.002;2023-05-18T06:12:18;9.70;99.90
20384;DHT22;46458;50.966;7.002;2023-05-18T06:14:50;9.70;99.90
20384;DHT22;46458;50.966;7.002;2023-05-18T06:17:22;9.70;99.90
20384;DHT22;46458;50.966;7.002;2023-05-18T06:19:51;9.80;99.90
20384;DHT22;46458;50.966;7.002;2023-05-18T06:22:23;9.80;99.90
20384;DHT22;46458;50.966;7.002;2023-05-18T06:25:18;9.80;99.90
20384;DHT22;46458;50.966;7.002;2023-05-18T06:28:09;9.90;99.90
20384;DHT22;46458;50.966;7.002;2023-05-18T06:30:53;10.00;99.90
20384;DHT22;46458;50.966;7.002;2023-05-18T06:33:37;10.20;99.90
20384;DHT22;46458;50.966;7.002;2023-05-18T06:36:07;10.20;99.90
20384;DHT22;46458;50.966;7.002;2023-05-18T06:38:36;10.20;99.90
20384;DHT22;46458;50.966;7.002;2023-05-18T06:41:05;10.30;99.90
20384;DHT22;46458;50.966;7.002;2023-05-18T06:43:34;10.40;99.90
20384;DHT22;46458;50.966;7.002;2023-05-18T06:46:31;10.50;99.90
20384;DHT22;46458;50.966;7.002;2023-05-18T06:49:01;10.60;99.90
20384;DHT22;46458;50.966;7.002;2023-05-18T06:51:30;10.60;99.90
20384;DHT22;46458;50.966;7.002;2023-05-18T06:54:02;10.60;99.90
20384;DHT22;46458;50.966;7.002;2023-05-18T06:56:31;10.80;99.90
20384;DHT22;46458;50.966;7.002;2023-05-18T06:59:01;10.90;99.90
20384;DHT22;46458;50.966;7.002;2023-05-18T07:01:35;11.00;99.90
20384;DHT22;46458;50.966;7.002;2023-05-18T07:04:05;11.10;99.90
20384;DHT22;46458;50.966;7.002;2023-05-18T07:06:33;11.10;99.90
20384;DHT22;46458;50.966;7.002;2023-05-18T07:09:03;11.20;99.90
20384;DHT22;46458;50.966;7.002;2023-05-18T07:11:32;11.30;99.90
20384;DHT22;46458;50.966;7.002;2023-05-18T07:14:01;11.40;99.90
20384;DHT22;46458;50.966;7.002;2023-05-18T07:16:33;11.50;99.90
20384;DHT22;46458;50.966;7.002;2023-05-18T07:19:02;11.60;99.90
20384;DHT22;46458;50.966;7.002;2023-05-18T07:21:31;11.70;99.90
20384;DHT22;46458;50.966;7.002;2023-05-18T07:24:00;11.80;99.90
20384;DHT22;46458;50.966;7.002;2023-05-18T07:26:31;11.80;99.90
20384;DHT22;46458;50.966;7.002;2023-05-18T07:29:01;11.80;99.90
20384;DHT22;46458;50.966;7.002;2023-05-18T07:31:29;11.90;99.90
20384;DHT22;46458;50.966;7.002;2023-05-18T07:34:01;12.00;99.90
20384;DHT22;46458;50.966;7.002;2023-05-18T07:36:30;12.10;99.90
20384;DHT22;46458;50.966;7.002;2023-05-18T07:38:59;12.20;99.90
20384;DHT22;46458;50.966;7.002;2023-05-18T07:41:28;12.30;99.90
20384;DHT22;46458;50.966;7.002;2023-05-18T07:43:58;12.40;99.90
20384;DHT22;46458;50.966;7.002;2023-05-18T07:46:26;12.60;99.90
20384;DHT22;46458;50.966;7.002;2023-05-18T07:48:56;12.70;99.90
20384;DHT22;46458;50.966;7.002;2023-05-18T07:51:28;12.80;99.90
20384;DHT22;46458;50.966;7.002;2023-05-18T07:53:57;12.90;99.90
20384;DHT22;46458;50.966;7.002;2023-05-18T07:56:25;13.00;99.90
20384;DHT22;46458;50.966;7.002;2023-05-18T07:58:55;13.10;99.90
20384;DHT22;46458;50.966;7.002;2023-05-18T08:01:23;13.20;99.90
20384;DHT22;46458;50.966;7.002;2023-05-18T08:03:54;13.30;99.90
20384;DHT22;46458;50.966;7.002;2023-05-18T08:06:23;13.40;99.90
20384;DHT22;46458;50.966;7.002;2023-05-18T08:08:55;13.60;99.90
20384;DHT22;46458;50.966;7.002;2023-05-18T08:11:24;13.70;99.90
20384;DHT22;46458;50.966;7.002;2023-05-18T08:13:52;13.70;99.90
20384;DHT22;46458;50.966;7.002;2023-05-18T08:16:21;13.80;99.90
20384;DHT22;46458;50.966;7.002;2023-05-18T08:18:50;14.00;99.90
20384;DHT22;46458;50.966;7.002;2023-05-18T08:21:19;14.10;99.90
20384;DHT22;46458;50.966;7.002;2023-05-18T08:23:47;14.20;99.90
20384;DHT22;46458;50.966;7.002;2023-05-18T08:26:19;14.20;99.90
20384;DHT22;46458;50.966;7.002;2023-05-18T08:28:52;14.30;99.90
20384;DHT22;46458;50.966;7.002;2023-05-18T08:31:24;14.20;99.90
20384;DHT22;46458;50.966;7.002;2023-05-18T08:33:53;14.30;99.90
20384;DHT22;46458;50.966;7.002;2023-05-18T08:36:21;14.30;99.90
20384;DHT22;46458;50.966;7.002;2023-05-18T08:38:50;14.40;99.90
20384;DHT22;46458;50.966;7.002;2023-05-18T08:41:27;14.50;99.90
20384;DHT22;46458;50.966;7.002;2023-05-18T08:44:00;14.50;99.90
20384;DHT22;46458;50.966;7.002;2023-05-18T08:46:33;14.50;99.90
20384;DHT22;46458;50.966;7.002;2023-05-18T08:49:04;14.70;99.90
20384;DHT22;46458;50.966;7.002;2023-05-18T08:51:36;14.80;99.90
20384;DHT22;46458;50.966;7.002;2023-05-18T08:54:05;14.90;99.90
20384;DHT22;46458;50.966;7.002;2023-05-18T08:56:39;15.00;99.90
20384;DHT22;46458;50.966;7.002;2023-05-18T08:59:11;15.10;99.90
20384;DHT22;46458;50.966;7.002;2023-05-18T09:01:42;15.20;99.90
20384;DHT22;46458;50.966;7.002;2023-05-18T09:04:11;15.40;99.90
20384;DHT22;46458;50.966;7.002;2023-05-18T09:06:43;15.50;99.90
20384;DHT22;46458;50.966;7.002;2023-05-18T09:09:13;15.70;99.90
20384;DHT22;46458;50.966;7.002;2023-05-18T09:11:46;15.80;99.90
20384;DHT22;46458;50.966;7.002;2023-05-18T09:14:15;15.90;99.90
20384;DHT22;46458;50.966;7.002;2023-05-18T09:16:44;16.10;99.90
20384;DHT22;46458;50.966;7.002;2023-05-18T09:19:13;16.30;99.90
20384;DHT22;46458;50.966;7.002;2023-05-18T09:21:42;16.50;99.90
20384;DHT22;46458;50.966;7.002;2023-05-18T09:24:11;16.60;99.90
20384;DHT22;46458;50.966;7.002;2023-05-18T09:26:40;16.80;99.90
20384;DHT22;46458;50.966;7.002;2023-05-18T09:29:18;16.90;99.90
20384;DHT22;46458;50.966;7.002;2023-05-18T09:31:49;16.90;99.90
20384;DHT22;46458;50.966;7.002;2023-05-18T09:34:18;17.10;99.90
20384;DHT22;46458;50.966;7.002;2023-05-18T09:36:50;17.40;99.90
20384;DHT22;46458;50.966;7.002;2023-05-18T09:39:22;17.60;99.90
20384;DHT22;46458;50.966;7.002;2023-05-18T09:41:54;17.60;99.90
20384;DHT22;46458;50.966;7.002;2023-05-18T09:44:30;17.70;99.90
20384;DHT22;46458;50.966;7.002;2023-05-18T09:46:59;17.50;99.90
20384;DHT22;46458;50.966;7.002;2023-05-18T09:49:29;17.30;99.90
20384;DHT22;46458;50.966;7.002;2023-05-18T09:51:58;17.10;99.90
20384;DHT22;46458;50.966;7.002;2023-05-18T09:54:27;17.00;99.90
20384;DHT22;46458;50.966;7.002;2023-05-18T09:56:56;16.90;99.90
20384;DHT22;46458;50.966;7.002;2023-05-18T09:59:26;16.60;99.90
20384;DHT22;46458;50.966;7.002;2023-05-18T10:02:02;16.40;99.90
20384;DHT22;46458;50.966;7.002;2023-05-18T10:04:39;16.30;99.90
20384;DHT22;46458;50.966;7.002;2023-05-18T10:07:09;16.20;99.90
20384;DHT22;46458;50.966;7.002;2023-05-18T10:09:40;16.20;99.90
20384;DHT22;46458;50.966;7.002;2023-05-18T10:12:10;16.20;99.90
20384;DHT22;46458;50.966;7.002;2023-05-18T10:14:42;16.30;99.90
20384;DHT22;46458;50.966;7.002;2023-05-18T10:17:15;16.40;99.90
20384;DHT22;46458;50.966;7.002;2023-05-18T10:19:44;16.40;99.90
20384;DHT22;46458;50.966;7.002;2023-05-18T10:22:15;16.60;99.90
20384;DHT22;46458;50.966;7.002;2023-05-18T10:24:51;16.80;99.90
20384;DHT22;46458;50.966;7.002;2023-05-18T10:27:24;17.00;99.90
20384;DHT22;46458;50.966;7.002;2023-05-18T10:29:57;17.00;99.90
20384;DHT22;46458;50.966;7.002;2023-05-18T10:32:31;17.10;99.90
20384;DHT22;46458;50.966;7.002;2023-05-18T10:35:03;17.30;99.90
20384;DHT22;46458;50.966;7.002;2023-05-18T10:37:34;17.40;99.90
20384;DHT22;46458;50.966;7.002;2023-05-18T10:40:07;17.50;99.90
20384;DHT22;46458;50.966;7.002;2023-05-18T10:42:38;17.50;99.90
20384;DHT22;46458;50.966;7.002;2023-05-18T10:45:09;17.50;99.90
20384;DHT22;46458;50.966;7.002;2023-05-18T10:47:43;17.50;99.90
20384;DHT22;46458;50.966;7.002;2023-05-18T10:50:14;17.50;99.90
20384;DHT22;46458;50.966;7.002;2023-05-18T10:52:43;17.50;99.90
20384;DHT22;46458;50.966;7.002;2023-05-18T10:55:13;17.60;99.90
20384;DHT22;46458;50.966;7.002;2023-05-18T10:57:46;17.60;99.90
20384;DHT22;46458;50.966;7.002;2023-05-18T11:00:18;17.70;99.90
20384;DHT22;46458;50.966;7.002;2023-05-18T11:02:50;17.90;99.90
20384;DHT22;46458;50.966;7.002;2023-05-18T11:05:23;17.80;99.90
20384;DHT22;46458;50.966;7.002;2023-05-18T11:07:58;17.70;99.90
20384;DHT22;46458;50.966;7.002;2023-05-18T11:10:43;17.70;99.90
20384;DHT22;46458;50.966;7.002;2023-05-18T11:13:13;17.70;99.90
20384;DHT22;46458;50.966;7.002;2023-05-18T11:16:03;17.80;99.90
20384;DHT22;46458;50.966;7.002;2023-05-18T11:18:40;17.90;99.90
20384;DHT22;46458;50.966;7.002;2023-05-18T11:21:30;17.90;99.90
20384;DHT22;46458;50.966;7.002;2023-05-18T11:24:18;17.90;99.90
20384;DHT22;46458;50.966;7.002;2023-05-18T11:26:49;18.00;99.90
20384;DHT22;46458;50.966;7.002;2023-05-18T11:29:20;18.10;99.90
20384;DHT22;46458;50.966;7.002;2023-05-18T11:31:53;18.20;99.90
20384;DHT22;46458;50.966;7.002;2023-05-18T11:34:40;18.20;99.90
20384;DHT22;46458;50.966;7.002;2023-05-18T11:37:10;18.30;99.90
20384;DHT22;46458;50.966;7.002;2023-05-18T11:39:40;18.30;99.90
20384;DHT22;46458;50.966;7.002;2023-05-18T11:42:09;18.30;99.90
20384;DHT22;46458;50.966;7.002;2023-05-18T11:44:39;18.20;99.90
20384;DHT22;46458;50.966;7.002;2023-05-18T11:47:09;18.20;99.90
20384;DHT22;46458;50.966;7.002;2023-05-18T11:49:45;18.20;99.90
20384;DHT22;46458;50.966;7.002;2023-05-18T11:52:19;18.40;99.90
20384;DHT22;46458;50.966;7.002;2023-05-18T11:54:52;18.50;99.90
20384;DHT22;46458;50.966;7.002;2023-05-18T11:57:23;18.60;99.90
20384;DHT22;46458;50.966;7.002;2023-05-18T11:59:56;18.70;99.90
20384;DHT22;46458;50.966;7.002;2023-05-18T12:02:30;18.60;99.90
20384;DHT22;46458;50.966;7.002;2023-05-18T12:05:06;18.70;99.90
20384;DHT22;46458;50.966;7.002;2023-05-18T12:07:36;18.80;99.90
20384;DHT22;46458;50.966;7.002;2023-05-18T12:10:07;18.80;99.90
20384;DHT22;46458;50.966;7.002;2023-05-18T12:12:36;18.60;99.90
20384;DHT22;46458;50.966;7.002;2023-05-18T12:15:06;18.50;99.90
20384;DHT22;46458;50.966;7.002;2023-05-18T12:17:39;18.70;99.90
20384;DHT22;46458;50.966;7.002;2023-05-18T12:20:12;18.80;99.90
20384;DHT22;46458;50.966;7.002;2023-05-18T12:22:43;18.80;99.90
20384;DHT22;46458;50.966;7.002;2023-05-18T12:25:15;18.80;99.90
20384;DHT22;46458;50.966;7.002;2023-05-18T12:27:48;18.80;99.90
20384;DHT22;46458;50.966;7.002;2023-05-18T12:30:18;18.70;99.90
20384;DHT22;46458;50.966;7.002;2023-05-18T12:32:49;18.70;99.90
20384;DHT22;46458;50.966;7.002;2023-05-18T12:35:24;18.70;99.90
20384;DHT22;46458;50.966;7.002;2023-05-18T12:37:53;18.80;99.90
20384;DHT22;46458;50.966;7.002;2023-05-18T12:40:25;18.90;99.90
20384;DHT22;46458;50.966;7.002;2023-05-18T12:42:55;18.90;99.90
20384;DHT22;46458;50.966;7.002;2023-05-18T12:45:27;19.00;99.90
20384;DHT22;46458;50.966;7.002;2023-05-18T12:48:03;19.00;99.90
20384;DHT22;46458;50.966;7.002;2023-05-18T12:50:34;19.00;99.90
20384;DHT22;46458;50.966;7.002;2023-05-18T12:53:06;19.10;99.90
20384;DHT22;46458;50.966;7.002;2023-05-18T12:55:35;19.20;99.90
20384;DHT22;46458;50.966;7.002;2023-05-18T12:58:04;19.10;99.90
20384;DHT22;46458;50.966;7.002;2023-05-18T13:00:36;19.10;99.90
20384;DHT22;46458;50.966;7.002;2023-05-18T13:03:05;19.10;99.90
20384;DHT22;46458;50.966;7.002;2023-05-18T13:05:37;19.30;99.90
20384;DHT22;46458;50.966;7.002;2023-05-18T13:08:12;19.20;99.90
20384;DHT22;46458;50.966;7.002;2023-05-18T13:10:46;19.10;99.90
20384;DHT22;46458;50.966;7.002;2023-05-18T13:13:15;19.20;99.90
20384;DHT22;46458;50.966;7.002;2023-05-18T13:15:44;19.50;99.90
20384;DHT22;46458;50.966;7.002;2023-05-18T13:18:16;19.60;99.90
20384;DHT22;46458;50.966;7.002;2023-05-18T13:20:50;19.80;99.90
20384;DHT22;46458;50.966;7.002;2023-05-18T13:23:21;19.80;99.90
20384;DHT22;46458;50.966;7.002;2023-05-18T13:25:50;19.90;99.90
20384;DHT22;46458;50.966;7.002;2023-05-18T13:28:20;20.10;99.90
20384;DHT22;46458;50.966;7.002;2023-05-18T13:30:49;20.10;99.90
20384;DHT22;46458;50.966;7.002;2023-05-18T13:33:28;20.20;99.90
20384;DHT22;46458;50.966;7.002;2023-05-18T13:35:59;20.10;99.90
20384;DHT22;46458;50.966;7.002;2023-05-18T13:38:28;20.10;99.90
20384;DHT22;46458;50.966;7.002;2023-05-18T13:41:00;20.30;99.90
20384;DHT22;46458;50.966;7.002;2023-05-18T13:43:29;20.40;99.90
20384;DHT22;46458;50.966;7.002;2023-05-18T13:45:58;20.50;99.90
20384;DHT22;46458;50.966;7.002;2023-05-18T13:48:27;20.40;99.90
20384;DHT22;46458;50.966;7.002;2023-05-18T13:50:59;20.20;99.90
20384;DHT22;46458;50.966;7.002;2023-05-18T13:53:30;20.20;99.90
20384;DHT22;46458;50.966;7.002;2023-05-18T13:55:59;20.20;99.90
20384;DHT22;46458;50.966;7.002;2023-05-18T13:58:28;20.20;99.90
20384;DHT22;46458;50.966;7.002;2023-05-18T14:00:56;20.30;99.90
20384;DHT22;46458;50.966;7.002;2023-05-18T14:03:28;20.60;99.90
20384;DHT22;46458;50.966;7.002;2023-05-18T14:06:01;20.50;99.90
20384;DHT22;46458;50.966;7.002;2023-05-18T14:08:32;20.80;99.90
20384;DHT22;46458;50.966;7.002;2023-05-18T14:11:01;21.00;99.90
20384;DHT22;46458;50.966;7.002;2023-05-18T14:13:33;21.40;99.90
20384;DHT22;46458;50.966;7.002;2023-05-18T14:16:02;21.60;99.90
20384;DHT22;46458;50.966;7.002;2023-05-18T14:18:31;21.40;99.90
20384;DHT22;46458;50.966;7.002;2023-05-18T14:21:02;21.20;99.90
20384;DHT22;46458;50.966;7.002;2023-05-18T14:23:31;21.30;99.90
20384;DHT22;46458;50.966;7.002;2023-05-18T14:25:59;21.40;99.90
20384;DHT22;46458;50.966;7.002;2023-05-18T14:28:28;21.60;99.90
20384;DHT22;46458;50.966;7.002;2023-05-18T14:30:57;21.90;99.90
20384;DHT22;46458;50.966;7.002;2023-05-18T14:33:26;21.90;99.90
20384;DHT22;46458;50.966;7.002;2023-05-18T14:35:55;22.00;99.90
20384;DHT22;46458;50.966;7.002;2023-05-18T14:38:27;22.20;99.90
20384;DHT22;46458;50.966;7.002;2023-05-18T14:40:55;22.30;99.90
20384;DHT22;46458;50.966;7.002;2023-05-18T14:43:27;22.50;99.90
20384;DHT22;46458;50.966;7.002;2023-05-18T14:45:56;22.50;99.80
20384;DHT22;46458;50.966;7.002;2023-05-18T14:48:24;22.40;98.90
20384;DHT22;46458;50.966;7.002;2023-05-18T14:50:53;22.50;99.80
20384;DHT22;46458;50.966;7.002;2023-05-18T14:53:22;22.50;99.90
20384;DHT22;46458;50.966;7.002;2023-05-18T14:55:53;22.70;98.90
20384;DHT22;46458;50.966;7.002;2023-05-18T14:58:22;22.70;99.90
20384;DHT22;46458;50.966;7.002;2023-05-18T15:00:51;22.80;99.50
20384;DHT22;46458;50.966;7.002;2023-05-18T15:03:20;22.50;98.60
20384;DHT22;46458;50.966;7.002;2023-05-18T15:05:48;22.30;99.90
20384;DHT22;46458;50.966;7.002;2023-05-18T15:08:17;22.50;99.90
20384;DHT22;46458;50.966;7.002;2023-05-18T15:10:46;22.60;99.90
20384;DHT22;46458;50.966;7.002;2023-05-18T15:13:18;22.70;99.90
20384;DHT22;46458;50.966;7.002;2023-05-18T15:15:48;22.70;99.90
20384;DHT22;46458;50.966;7.002;2023-05-18T15:18:17;22.70;99.90
20384;DHT22;46458;50.966;7.002;2023-05-18T15:20:45;22.70;99.90
20384;DHT22;46458;50.966;7.002;2023-05-18T15:23:27;22.60;99.90
20384;DHT22;46458;50.966;7.002;2023-05-18T15:25:56;22.70;99.90
20384;DHT22;46458;50.966;7.002;2023-05-18T15:28:30;22.50;99.90
20384;DHT22;46458;50.966;7.002;2023-05-18T15:30:59;22.20;99.90
20384;DHT22;46458;50.966;7.002;2023-05-18T15:33:28;22.40;99.90
20384;DHT22;46458;50.966;7.002;2023-05-18T15:35:57;22.60;99.90
20384;DHT22;46458;50.966;7.002;2023-05-18T15:38:26;22.40;99.90
20384;DHT22;46458;50.966;7.002;2023-05-18T15:40:57;22.40;99.90
20384;DHT22;46458;50.966;7.002;2023-05-18T15:43:28;22.40;99.90
20384;DHT22;46458;50.966;7.002;2023-05-18T15:45:58;21.90;99.90
20384;DHT22;46458;50.966;7.002;2023-05-18T15:48:27;21.60;99.90
20384;DHT22;46458;50.966;7.002;2023-05-18T15:50:56;21.60;99.90
20384;DHT22;46458;50.966;7.002;2023-05-18T15:53:25;21.70;99.90
20384;DHT22;46458;50.966;7.002;2023-05-18T15:55:56;21.90;99.90
20384;DHT22;46458;50.966;7.002;2023-05-18T15:58:28;22.10;99.90
20384;DHT22;46458;50.966;7.002;2023-05-18T16:00:57;22.40;99.90
20384;DHT22;46458;50.966;7.002;2023-05-18T16:03:26;22.40;99.90